sensor_id;sensor_type;location;lat;lon;timestamp;pressure;altitude;pressure_sealevel;temperature;humidity
68226;BME280;55045;49.410;11.030;2022-07-29T00:02:26;97845.78;;;21.06;56.38
68226;BME280;55045;49.410;11.030;2022-07-29T00:05:29;97841.78;;;20.92;57.96
68226;BME280;55045;49.410;11.030;2022-07-29T00:08:35;97830.09;;;21.32;60.64
68226;BME280;55045;49.410;11.030;2022-07-29T00:11:38;97829.66;;;21.37;56.38
68226;BME280;55045;49.410;11.030;2022-07-29T00:14:41;97827.47;;;20.67;58.75
68226;BME280;55045;49.410;11.030;2022-07-29T00:17:45;97830.72;;;21.44;55.04
68226;BME280;55045;49.410;11.030;2022-07-29T00:20:48;97830.41;;;20.92;57.73
68226;BME280;55045;49.410;11.030;2022-07-29T00:23:53;97816.28;;;20.83;60.08
68226;BME280;55045;49.410;11.030;2022-07-29T00:26:56;97817.00;;;21.13;60.43
68226;BME280;55045;49.410;11.030;2022-07-29T00:29:59;97812.31;;;20.79;61.67
68226;BME280;55045;49.410;11.030;2022-07-29T00:33:03;97815.09;;;21.05;60.36
68226;BME280;55045;49.410;11.030;2022-07-29T00:36:10;97806.25;;;20.96;61.71
68226;BME280;55045;49.410;11.030;2022-07-29T00:39:13;97805.38;;;20.78;61.90
68226;BME280;55045;49.410;11.030;2022-07-29T00:42:17;97760.53;;;20.51;63.70
68226;BME280;55045;49.410;11.030;2022-07-29T00:45:20;97807.81;;;20.52;64.45
68226;BME280;55045;49.410;11.030;2022-07-29T00:48:24;97804.25;;;20.44;65.20
68226;BME280;55045;49.410;11.030;2022-07-29T00:51:28;97805.63;;;20.38;64.49
68226;BME280;55045;49.410;11.030;2022-07-29T00:54:34;97801.72;;;20.52;64.28
68226;BME280;55045;49.410;11.030;2022-07-29T00:57:45;97801.44;;;20.55;63.91
68226;BME280;55045;49.410;11.030;2022-07-29T01:00:48;97798.78;;;20.64;63.17
68226;BME280;55045;49.410;11.030;2022-07-29T01:03:52;97808.94;;;20.50;63.12
68226;BME280;55045;49.410;11.030;2022-07-29T01:06:55;97812.41;;;20.31;64.68
68226;BME280;55045;49.410;11.030;2022-07-29T01:10:03;97806.47;;;20.29;64.48
68226;BME280;55045;49.410;11.030;2022-07-29T01:13:07;97813.28;;;20.02;68.49
68226;BME280;55045;49.410;11.030;2022-07-29T01:16:16;97824.53;;;20.14;68.79
68226;BME280;55045;49.410;11.030;2022-07-29T01:19:33;97815.09;;;20.11;67.46
68226;BME280;55045;49.410;11.030;2022-07-29T01:23:13;97804.41;;;20.23;67.06
68226;BME280;55045;49.410;11.030;2022-07-29T01:26:34;97814.16;;;19.83;70.37
68226;BME280;55045;49.410;11.030;2022-07-29T01:29:47;97806.13;;;19.85;71.43
68226;BME280;55045;49.410;11.030;2022-07-29T01:32:59;97803.50;;;19.75;71.70
68226;BME280;55045;49.410;11.030;2022-07-29T01:36:07;97807.66;;;19.88;70.01
68226;BME280;55045;49.410;11.030;2022-07-29T01:39:18;97807.66;;;19.78;71.08
68226;BME280;55045;49.410;11.030;2022-07-29T01:42:27;97801.41;;;19.60;72.27
68226;BME280;55045;49.410;11.030;2022-07-29T01:45:39;97797.66;;;19.52;72.54
68226;BME280;55045;49.410;11.030;2022-07-29T01:48:46;97781.72;;;19.35;73.61
68226;BME280;55045;49.410;11.030;2022-07-29T01:51:53;97797.63;;;19.23;75.25
68226;BME280;55045;49.410;11.030;2022-07-29T01:55:00;97804.81;;;19.21;76.91
68226;BME280;55045;49.410;11.030;2022-07-29T01:58:06;97803.81;;;19.13;78.31
68226;BME280;55045;49.410;11.030;2022-07-29T02:01:12;97798.03;;;19.38;76.64
68226;BME280;55045;49.410;11.030;2022-07-29T02:04:18;97782.69;;;19.43;76.16
68226;BME280;55045;49.410;11.030;2022-07-29T02:07:32;97782.53;;;19.35;77.51
68226;BME280;55045;49.410;11.030;2022-07-29T02:10:37;97777.22;;;20.22;71.77
68226;BME280;55045;49.410;11.030;2022-07-29T02:13:43;97770.28;;;19.65;71.81
68226;BME280;55045;49.410;11.030;2022-07-29T02:16:50;97761.22;;;19.48;72.47
68226;BME280;55045;49.410;11.030;2022-07-29T02:19:59;97779.94;;;19.45;73.70
68226;BME280;55045;49.410;11.030;2022-07-29T02:23:03;97775.78;;;19.33;75.57
68226;BME280;55045;49.410;11.030;2022-07-29T02:26:07;97754.56;;;19.15;74.14
68226;BME280;55045;49.410;11.030;2022-07-29T02:29:12;97778.38;;;19.23;74.02
68226;BME280;55045;49.410;11.030;2022-07-29T02:32:29;97773.78;;;19.06;75.96
68226;BME280;55045;49.410;11.030;2022-07-29T02:35:34;97772.81;;;19.07;75.57
68226;BME280;55045;49.410;11.030;2022-07-29T02:38:38;97778.63;;;19.20;75.43
68226;BME280;55045;49.410;11.030;2022-07-29T02:41:57;97779.19;;;19.04;76.78
68226;BME280;55045;49.410;11.030;2022-07-29T02:45:02;97784.72;;;19.20;76.99
68226;BME280;55045;49.410;11.030;2022-07-29T02:48:10;97788.28;;;18.90;79.91
68226;BME280;55045;49.410;11.030;2022-07-29T02:51:19;97786.44;;;18.81;80.30
68226;BME280;55045;49.410;11.030;2022-07-29T02:54:49;97782.09;;;19.11;78.35
68226;BME280;55045;49.410;11.030;2022-07-29T02:57:58;97779.09;;;18.75;79.73
68226;BME280;55045;49.410;11.030;2022-07-29T03:01:08;97788.28;;;19.00;80.17
68226;BME280;55045;49.410;11.030;2022-07-29T03:04:22;97772.16;;;18.74;81.20
68226;BME280;55045;49.410;11.030;2022-07-29T03:07:28;97786.97;;;18.75;81.72
68226;BME280;55045;49.410;11.030;2022-07-29T03:10:31;97792.34;;;18.74;80.99
68226;BME280;55045;49.410;11.030;2022-07-29T03:13:36;97793.56;;;18.69;80.60
68226;BME280;55045;49.410;11.030;2022-07-29T03:16:40;97797.22;;;18.57;81.29
68226;BME280;55045;49.410;11.030;2022-07-29T03:19:46;97789.06;;;18.81;79.00
68226;BME280;55045;49.410;11.030;2022-07-29T03:22:50;97788.31;;;18.69;79.68
68226;BME280;55045;49.410;11.030;2022-07-29T03:25:54;97787.25;;;18.72;80.43
68226;BME280;55045;49.410;11.030;2022-07-29T03:28:58;97795.25;;;18.70;79.27
68226;BME280;55045;49.410;11.030;2022-07-29T03:34:43;97791.84;;;18.59;79.23
68226;BME280;55045;49.410;11.030;2022-07-29T03:37:49;97792.88;;;18.67;78.06
68226;BME280;55045;49.410;11.030;2022-07-29T03:40:55;97793.06;;;18.76;76.71
68226;BME280;55045;49.410;11.030;2022-07-29T03:43:59;97788.06;;;18.73;77.27
68226;BME280;55045;49.410;11.030;2022-07-29T03:47:04;97795.16;;;18.82;77.27
68226;BME280;55045;49.410;11.030;2022-07-29T03:50:11;97771.78;;;19.77;77.86
68226;BME280;55045;49.410;11.030;2022-07-29T03:53:18;97795.03;;;18.83;76.78
68226;BME280;55045;49.410;11.030;2022-07-29T03:56:22;97790.13;;;18.69;77.83
68226;BME280;55045;49.410;11.030;2022-07-29T03:59:27;97798.03;;;18.79;77.93
68226;BME280;55045;49.410;11.030;2022-07-29T04:02:31;97795.38;;;18.48;80.53
68226;BME280;55045;49.410;11.030;2022-07-29T04:05:36;97795.66;;;18.45;79.78
68226;BME280;55045;49.410;11.030;2022-07-29T04:08:40;97798.72;;;18.50;80.14
68226;BME280;55045;49.410;11.030;2022-07-29T04:11:43;97791.44;;;18.33;80.20
68226;BME280;55045;49.410;11.030;2022-07-29T04:15:05;97787.53;;;18.27;80.35
68226;BME280;55045;49.410;11.030;2022-07-29T04:18:08;97804.06;;;18.18;82.58
68226;BME280;55045;49.410;11.030;2022-07-29T04:21:13;97810.47;;;18.25;83.98
68226;BME280;55045;49.410;11.030;2022-07-29T04:24:19;97812.53;;;18.22;84.54
68226;BME280;55045;49.410;11.030;2022-07-29T04:27:23;97823.47;;;18.27;85.69
68226;BME280;55045;49.410;11.030;2022-07-29T04:30:26;97821.28;;;18.32;86.52
68226;BME280;55045;49.410;11.030;2022-07-29T04:33:30;97821.53;;;18.08;87.90
68226;BME280;55045;49.410;11.030;2022-07-29T04:36:35;97828.78;;;18.16;90.39
68226;BME280;55045;49.410;11.030;2022-07-29T04:39:38;97826.34;;;18.03;89.71
68226;BME280;55045;49.410;11.030;2022-07-29T04:42:41;97823.69;;;18.65;87.99
68226;BME280;55045;49.410;11.030;2022-07-29T04:45:48;97834.72;;;18.18;90.07
68226;BME280;55045;49.410;11.030;2022-07-29T04:48:51;97821.72;;;17.95;94.38
68226;BME280;55045;49.410;11.030;2022-07-29T04:51:56;97819.38;;;17.92;94.11
68226;BME280;55045;49.410;11.030;2022-07-29T04:54:59;97833.91;;;18.17;92.05
68226;BME280;55045;49.410;11.030;2022-07-29T04:58:03;97812.91;;;18.17;90.25
68226;BME280;55045;49.410;11.030;2022-07-29T05:01:07;97820.06;;;18.15;89.61
68226;BME280;55045;49.410;11.030;2022-07-29T05:04:10;97847.28;;;18.35;88.86
68226;BME280;55045;49.410;11.030;2022-07-29T05:07:15;97845.56;;;19.06;84.42
68226;BME280;55045;49.410;11.030;2022-07-29T05:10:18;97846.81;;;19.02;83.47
68226;BME280;55045;49.410;11.030;2022-07-29T05:13:22;97844.50;;;18.57;88.08
68226;BME280;55045;49.410;11.030;2022-07-29T05:16:25;97847.25;;;18.77;85.40
68226;BME280;55045;49.410;11.030;2022-07-29T05:19:28;97817.69;;;19.34;80.03
68226;BME280;55045;49.410;11.030;2022-07-29T05:22:33;97837.28;;;19.70;73.49
68226;BME280;55045;49.410;11.030;2022-07-29T05:25:36;97834.78;;;19.88;77.04
68226;BME280;55045;49.410;11.030;2022-07-29T05:28:45;97841.16;;;19.85;72.59
68226;BME280;55045;49.410;11.030;2022-07-29T05:31:49;97835.34;;;19.92;71.96
68226;BME280;55045;49.410;11.030;2022-07-29T05:34:53;97842.81;;;20.06;69.29
68226;BME280;55045;49.410;11.030;2022-07-29T05:37:58;97843.31;;;20.58;65.75
68226;BME280;55045;49.410;11.030;2022-07-29T05:41:02;97849.44;;;20.29;70.00
68226;BME280;55045;49.410;11.030;2022-07-29T05:44:06;97826.19;;;20.15;66.18
68226;BME280;55045;49.410;11.030;2022-07-29T05:47:11;97840.28;;;20.43;65.82
68226;BME280;55045;49.410;11.030;2022-07-29T05:50:30;97835.00;;;20.53;65.92
68226;BME280;55045;49.410;11.030;2022-07-29T05:53:50;97848.97;;;20.63;65.70
68226;BME280;55045;49.410;11.030;2022-07-29T05:56:53;97843.47;;;20.84;66.21
68226;BME280;55045;49.410;11.030;2022-07-29T05:59:57;97818.94;;;20.83;66.17
68226;BME280;55045;49.410;11.030;2022-07-29T06:03:03;97837.94;;;21.14;66.47
68226;BME280;55045;49.410;11.030;2022-07-29T06:06:06;97834.47;;;21.14;67.06
68226;BME280;55045;49.410;11.030;2022-07-29T06:09:11;97841.88;;;21.38;64.14
68226;BME280;55045;49.410;11.030;2022-07-29T06:12:16;97848.03;;;22.09;57.99
68226;BME280;55045;49.410;11.030;2022-07-29T06:15:19;97819.63;;;21.76;59.21
68226;BME280;55045;49.410;11.030;2022-07-29T06:18:22;97836.06;;;22.05;60.05
68226;BME280;55045;49.410;11.030;2022-07-29T06:21:26;97840.75;;;22.81;54.57
68226;BME280;55045;49.410;11.030;2022-07-29T06:24:31;97849.06;;;23.28;52.23
68226;BME280;55045;49.410;11.030;2022-07-29T06:27:34;97823.16;;;22.98;53.28
68226;BME280;55045;49.410;11.030;2022-07-29T06:30:37;97837.56;;;23.04;54.15
68226;BME280;55045;49.410;11.030;2022-07-29T06:33:41;97842.56;;;22.81;57.10
68226;BME280;55045;49.410;11.030;2022-07-29T06:36:44;97836.09;;;22.49;59.01
68226;BME280;55045;49.410;11.030;2022-07-29T06:39:50;97840.25;;;23.12;56.20
68226;BME280;55045;49.410;11.030;2022-07-29T06:43:14;97838.88;;;22.99;55.76
68226;BME280;55045;49.410;11.030;2022-07-29T06:46:18;97849.34;;;22.57;60.73
68226;BME280;55045;49.410;11.030;2022-07-29T06:49:22;97852.41;;;23.39;56.46
68226;BME280;55045;49.410;11.030;2022-07-29T06:52:27;97845.09;;;23.24;56.64
68226;BME280;55045;49.410;11.030;2022-07-29T06:55:33;97855.09;;;23.55;56.48
68226;BME280;55045;49.410;11.030;2022-07-29T06:58:38;97853.34;;;23.72;55.10
68226;BME280;55045;49.410;11.030;2022-07-29T07:01:43;97846.59;;;24.26;53.21
68226;BME280;55045;49.410;11.030;2022-07-29T07:04:48;97847.09;;;24.13;54.86
68226;BME280;55045;49.410;11.030;2022-07-29T07:07:51;97848.91;;;24.21;53.85
68226;BME280;55045;49.410;11.030;2022-07-29T07:10:56;97830.72;;;24.42;51.36
68226;BME280;55045;49.410;11.030;2022-07-29T07:14:00;97842.47;;;23.91;53.77
68226;BME280;55045;49.410;11.030;2022-07-29T07:17:05;97849.56;;;23.82;55.30
68226;BME280;55045;49.410;11.030;2022-07-29T07:20:09;97841.13;;;24.20;54.35
68226;BME280;55045;49.410;11.030;2022-07-29T07:23:13;97845.09;;;24.64;52.91
68226;BME280;55045;49.410;11.030;2022-07-29T07:26:18;97826.78;;;24.86;52.37
68226;BME280;55045;49.410;11.030;2022-07-29T07:29:22;97820.72;;;24.61;52.31
68226;BME280;55045;49.410;11.030;2022-07-29T07:32:25;97835.97;;;24.51;53.29
68226;BME280;55045;49.410;11.030;2022-07-29T07:35:28;97818.28;;;24.19;55.28
68226;BME280;55045;49.410;11.030;2022-07-29T07:38:32;97835.69;;;25.01;51.38
68226;BME280;55045;49.410;11.030;2022-07-29T07:41:36;97823.78;;;25.90;48.43
68226;BME280;55045;49.410;11.030;2022-07-29T07:44:40;97830.78;;;26.29;45.51
68226;BME280;55045;49.410;11.030;2022-07-29T07:48:04;97838.59;;;26.07;46.41
68226;BME280;55045;49.410;11.030;2022-07-29T07:51:07;97826.22;;;25.15;49.49
68226;BME280;55045;49.410;11.030;2022-07-29T07:54:11;97814.44;;;25.01;50.70
68226;BME280;55045;49.410;11.030;2022-07-29T07:57:16;97831.31;;;24.69;52.10
68226;BME280;55045;49.410;11.030;2022-07-29T08:00:19;97784.34;;;24.14;53.74
68226;BME280;55045;49.410;11.030;2022-07-29T08:03:24;97827.16;;;24.75;53.03
68226;BME280;55045;49.410;11.030;2022-07-29T08:06:28;97834.22;;;25.07;51.54
68226;BME280;55045;49.410;11.030;2022-07-29T08:09:31;97818.94;;;25.09;52.39
68226;BME280;55045;49.410;11.030;2022-07-29T08:12:37;97814.56;;;24.68;52.67
68226;BME280;55045;49.410;11.030;2022-07-29T08:15:41;97819.56;;;24.63;54.12
68226;BME280;55045;49.410;11.030;2022-07-29T08:18:45;97783.03;;;23.94;56.54
68226;BME280;55045;49.410;11.030;2022-07-29T08:21:49;97826.56;;;24.24;56.33
68226;BME280;55045;49.410;11.030;2022-07-29T08:24:54;97825.72;;;24.23;55.49
68226;BME280;55045;49.410;11.030;2022-07-29T08:27:59;97823.88;;;24.64;54.23
68226;BME280;55045;49.410;11.030;2022-07-29T08:31:02;97819.69;;;24.70;53.26
68226;BME280;55045;49.410;11.030;2022-07-29T08:34:06;97829.53;;;25.09;52.46
68226;BME280;55045;49.410;11.030;2022-07-29T08:37:09;97825.50;;;25.83;50.09
68226;BME280;55045;49.410;11.030;2022-07-29T08:40:13;97815.38;;;25.55;50.37
68226;BME280;55045;49.410;11.030;2022-07-29T08:43:20;97820.91;;;25.15;52.54
68226;BME280;55045;49.410;11.030;2022-07-29T08:46:24;97812.56;;;25.80;49.07
68226;BME280;55045;49.410;11.030;2022-07-29T08:49:28;97806.50;;;25.71;48.79
68226;BME280;55045;49.410;11.030;2022-07-29T08:52:33;97814.88;;;25.52;47.96
68226;BME280;55045;49.410;11.030;2022-07-29T08:55:39;97817.53;;;25.83;48.21
68226;BME280;55045;49.410;11.030;2022-07-29T08:58:46;97809.91;;;26.40;46.86
68226;BME280;55045;49.410;11.030;2022-07-29T09:01:54;97806.38;;;26.25;46.02
68226;BME280;55045;49.410;11.030;2022-07-29T09:05:00;97810.41;;;26.36;45.42
68226;BME280;55045;49.410;11.030;2022-07-29T09:08:04;97816.47;;;26.30;42.74
68226;BME280;55045;49.410;11.030;2022-07-29T09:11:07;97812.59;;;26.85;42.63
68226;BME280;55045;49.410;11.030;2022-07-29T09:14:13;97787.00;;;26.84;43.49
68226;BME280;55045;49.410;11.030;2022-07-29T09:17:17;97811.97;;;26.30;44.11
68226;BME280;55045;49.410;11.030;2022-07-29T09:20:22;97811.22;;;27.54;41.72
68226;BME280;55045;49.410;11.030;2022-07-29T09:23:25;97811.16;;;26.67;43.75
68226;BME280;55045;49.410;11.030;2022-07-29T09:26:29;97803.63;;;26.19;44.63
68226;BME280;55045;49.410;11.030;2022-07-29T09:29:35;97797.56;;;26.62;41.99
68226;BME280;55045;49.410;11.030;2022-07-29T09:34:43;97804.44;;;26.72;43.57
68226;BME280;55045;49.410;11.030;2022-07-29T09:37:47;97793.88;;;27.22;41.37
68226;BME280;55045;49.410;11.030;2022-07-29T09:40:55;97798.66;;;27.12;41.99
68226;BME280;55045;49.410;11.030;2022-07-29T09:44:07;97788.84;;;26.98;40.73
68226;BME280;55045;49.410;11.030;2022-07-29T09:47:10;97776.91;;;26.64;41.57
68226;BME280;55045;49.410;11.030;2022-07-29T09:50:15;97763.16;;;26.76;40.89
68226;BME280;55045;49.410;11.030;2022-07-29T09:53:31;97789.56;;;26.92;41.90
68226;BME280;55045;49.410;11.030;2022-07-29T09:56:38;97777.84;;;27.37;40.41
68226;BME280;55045;49.410;11.030;2022-07-29T09:59:55;97793.69;;;26.94;39.83
68226;BME280;55045;49.410;11.030;2022-07-29T10:02:59;97770.75;;;27.44;39.59
68226;BME280;55045;49.410;11.030;2022-07-29T10:06:07;97796.59;;;27.65;39.62
68226;BME280;55045;49.410;11.030;2022-07-29T10:09:11;97784.13;;;27.30;39.32
68226;BME280;55045;49.410;11.030;2022-07-29T10:12:14;97786.53;;;26.65;39.66
68226;BME280;55045;49.410;11.030;2022-07-29T10:15:18;97767.25;;;27.44;38.97
68226;BME280;55045;49.410;11.030;2022-07-29T10:18:21;97783.91;;;27.67;39.44
68226;BME280;55045;49.410;11.030;2022-07-29T10:21:32;97780.94;;;27.05;40.49
68226;BME280;55045;49.410;11.030;2022-07-29T10:24:38;97774.94;;;27.96;38.59
68226;BME280;55045;49.410;11.030;2022-07-29T10:27:42;97770.72;;;28.02;38.50
68226;BME280;55045;49.410;11.030;2022-07-29T10:30:46;97774.75;;;27.98;37.82
68226;BME280;55045;49.410;11.030;2022-07-29T10:34:01;97778.09;;;28.56;37.64
68226;BME280;55045;49.410;11.030;2022-07-29T10:37:20;97717.53;;;27.94;37.87
68226;BME280;55045;49.410;11.030;2022-07-29T10:40:45;97768.16;;;28.43;37.35
68226;BME280;55045;49.410;11.030;2022-07-29T10:44:14;97757.78;;;27.77;38.13
68226;BME280;55045;49.410;11.030;2022-07-29T10:47:25;97749.94;;;27.69;38.66
68226;BME280;55045;49.410;11.030;2022-07-29T10:50:52;97751.38;;;28.21;37.92
68226;BME280;55045;49.410;11.030;2022-07-29T10:53:57;97754.94;;;28.07;37.69
68226;BME280;55045;49.410;11.030;2022-07-29T10:57:13;97752.00;;;27.74;38.51
68226;BME280;55045;49.410;11.030;2022-07-29T11:00:31;97741.56;;;27.58;39.14
68226;BME280;55045;49.410;11.030;2022-07-29T11:03:47;97748.22;;;28.11;37.49
68226;BME280;55045;49.410;11.030;2022-07-29T11:07:07;97725.00;;;28.05;38.10
68226;BME280;55045;49.410;11.030;2022-07-29T11:10:22;97737.84;;;27.52;38.83
68226;BME280;55045;49.410;11.030;2022-07-29T11:13:46;97728.41;;;27.92;37.77
68226;BME280;55045;49.410;11.030;2022-07-29T11:17:09;97732.94;;;28.26;37.70
68226;BME280;55045;49.410;11.030;2022-07-29T11:20:35;97735.53;;;28.13;37.74
68226;BME280;55045;49.410;11.030;2022-07-29T11:23:39;97728.97;;;27.66;39.16
68226;BME280;55045;49.410;11.030;2022-07-29T11:27:12;97731.03;;;28.48;38.27
68226;BME280;55045;49.410;11.030;2022-07-29T11:30:57;97737.03;;;28.22;37.95
68226;BME280;55045;49.410;11.030;2022-07-29T11:34:23;97735.84;;;28.03;38.67
68226;BME280;55045;49.410;11.030;2022-07-29T11:37:30;97733.53;;;27.94;38.91
68226;BME280;55045;49.410;11.030;2022-07-29T11:41:19;97724.16;;;29.08;37.54
68226;BME280;55045;49.410;11.030;2022-07-29T11:44:54;97718.22;;;28.65;38.03
68226;BME280;55045;49.410;11.030;2022-07-29T11:47:59;97706.84;;;28.50;37.72
68226;BME280;55045;49.410;11.030;2022-07-29T11:51:22;97712.66;;;29.08;36.98
68226;BME280;55045;49.410;11.030;2022-07-29T11:54:35;97697.72;;;28.03;37.56
68226;BME280;55045;49.410;11.030;2022-07-29T11:58:01;97710.25;;;28.30;37.59
68226;BME280;55045;49.410;11.030;2022-07-29T12:01:07;97710.25;;;28.37;37.13
68226;BME280;55045;49.410;11.030;2022-07-29T12:04:10;97693.47;;;27.80;38.89
68226;BME280;55045;49.410;11.030;2022-07-29T12:07:14;97705.59;;;29.68;36.12
68226;BME280;55045;49.410;11.030;2022-07-29T12:10:18;97697.38;;;29.56;34.89
68226;BME280;55045;49.410;11.030;2022-07-29T12:13:38;97672.41;;;29.09;36.14
68226;BME280;55045;49.410;11.030;2022-07-29T12:16:43;97680.25;;;28.63;37.29
68226;BME280;55045;49.410;11.030;2022-07-29T12:19:46;97649.53;;;28.87;36.49
68226;BME280;55045;49.410;11.030;2022-07-29T12:22:52;97661.72;;;29.03;36.55
68226;BME280;55045;49.410;11.030;2022-07-29T12:25:57;97672.00;;;29.32;36.56
68226;BME280;55045;49.410;11.030;2022-07-29T12:29:01;97676.75;;;29.37;36.65
68226;BME280;55045;49.410;11.030;2022-07-29T12:32:13;97671.44;;;28.28;38.33
68226;BME280;55045;49.410;11.030;2022-07-29T12:35:21;97684.84;;;28.82;37.50
68226;BME280;55045;49.410;11.030;2022-07-29T12:38:24;97679.28;;;28.36;37.03
68226;BME280;55045;49.410;11.030;2022-07-29T12:41:31;97677.84;;;28.33;34.82
68226;BME280;55045;49.410;11.030;2022-07-29T12:44:45;97673.75;;;28.37;35.76
68226;BME280;55045;49.410;11.030;2022-07-29T12:47:53;97670.84;;;28.80;36.01
68226;BME280;55045;49.410;11.030;2022-07-29T12:50:59;97681.66;;;29.20;34.92
68226;BME280;55045;49.410;11.030;2022-07-29T12:54:05;97669.38;;;28.64;35.24
68226;BME280;55045;49.410;11.030;2022-07-29T12:57:09;97669.09;;;29.01;34.23
68226;BME280;55045;49.410;11.030;2022-07-29T13:00:23;97663.56;;;29.02;34.72
68226;BME280;55045;49.410;11.030;2022-07-29T13:03:29;97654.94;;;29.20;33.71
68226;BME280;55045;49.410;11.030;2022-07-29T13:06:59;97653.38;;;28.78;33.37
68226;BME280;55045;49.410;11.030;2022-07-29T13:10:14;97650.78;;;28.91;33.91
68226;BME280;55045;49.410;11.030;2022-07-29T13:13:19;97652.97;;;29.48;33.27
68226;BME280;55045;49.410;11.030;2022-07-29T13:16:22;97639.94;;;29.06;34.22
68226;BME280;55045;49.410;11.030;2022-07-29T13:19:35;97669.53;;;29.11;33.08
68226;BME280;55045;49.410;11.030;2022-07-29T13:22:40;97664.19;;;28.56;34.14
68226;BME280;55045;49.410;11.030;2022-07-29T13:25:44;97620.56;;;28.29;33.83
68226;BME280;55045;49.410;11.030;2022-07-29T13:28:47;97674.56;;;28.38;34.63
68226;BME280;55045;49.410;11.030;2022-07-29T13:31:51;97690.75;;;28.08;37.07
68226;BME280;55045;49.410;11.030;2022-07-29T13:34:56;97678.63;;;27.50;40.15
68226;BME280;55045;49.410;11.030;2022-07-29T13:38:00;97675.50;;;27.46;41.89
68226;BME280;55045;49.410;11.030;2022-07-29T13:41:03;97667.91;;;27.22;43.80
68226;BME280;55045;49.410;11.030;2022-07-29T13:44:07;97672.28;;;27.08;45.59
68226;BME280;55045;49.410;11.030;2022-07-29T13:47:10;97678.59;;;26.71;48.33
68226;BME280;55045;49.410;11.030;2022-07-29T13:50:15;97677.84;;;26.33;50.66
68226;BME280;55045;49.410;11.030;2022-07-29T13:53:18;97680.56;;;26.48;51.27
68226;BME280;55045;49.410;11.030;2022-07-29T13:56:28;97692.06;;;26.10;53.02
68226;BME280;55045;49.410;11.030;2022-07-29T13:59:31;97699.25;;;26.39;51.80
68226;BME280;55045;49.410;11.030;2022-07-29T14:02:35;97662.28;;;26.00;50.92
68226;BME280;55045;49.410;11.030;2022-07-29T14:05:41;97689.81;;;25.84;60.35
68226;BME280;55045;49.410;11.030;2022-07-29T14:08:44;97689.31;;;25.43;64.11
68226;BME280;55045;49.410;11.030;2022-07-29T14:11:48;97675.28;;;25.12;69.06
68226;BME280;55045;49.410;11.030;2022-07-29T14:14:53;97671.34;;;24.37;77.98
68226;BME280;55045;49.410;11.030;2022-07-29T14:17:56;97677.41;;;23.91;87.47
68226;BME280;55045;49.410;11.030;2022-07-29T14:21:01;97689.50;;;23.69;95.42
68226;BME280;55045;49.410;11.030;2022-07-29T14:24:05;97694.97;;;23.83;100.00
68226;BME280;55045;49.410;11.030;2022-07-29T14:27:25;97692.19;;;24.40;82.83
68226;BME280;55045;49.410;11.030;2022-07-29T14:30:39;97696.81;;;24.47;97.35
68226;BME280;55045;49.410;11.030;2022-07-29T14:33:42;97698.19;;;24.42;92.20
68226;BME280;55045;49.410;11.030;2022-07-29T14:36:51;97702.41;;;24.60;90.58
68226;BME280;55045;49.410;11.030;2022-07-29T14:39:57;97702.63;;;24.81;85.36
68226;BME280;55045;49.410;11.030;2022-07-29T14:43:04;97713.81;;;25.08;87.61
68226;BME280;55045;49.410;11.030;2022-07-29T14:46:07;97712.75;;;25.17;91.06
68226;BME280;55045;49.410;11.030;2022-07-29T14:49:11;97717.66;;;24.97;90.36
68226;BME280;55045;49.410;11.030;2022-07-29T14:52:16;97728.91;;;24.99;81.25
68226;BME280;55045;49.410;11.030;2022-07-29T14:55:19;97725.69;;;25.12;82.44
68226;BME280;55045;49.410;11.030;2022-07-29T14:58:23;97737.06;;;25.28;74.13
68226;BME280;55045;49.410;11.030;2022-07-29T15:01:26;97684.66;;;24.91;71.05
68226;BME280;55045;49.410;11.030;2022-07-29T15:04:31;97756.03;;;25.17;94.36
68226;BME280;55045;49.410;11.030;2022-07-29T15:07:35;97770.28;;;24.77;100.00
68226;BME280;55045;49.410;11.030;2022-07-29T15:10:39;97772.00;;;24.62;94.94
68226;BME280;55045;49.410;11.030;2022-07-29T15:13:42;97767.31;;;24.72;90.10
68226;BME280;55045;49.410;11.030;2022-07-29T15:16:46;97766.69;;;24.62;85.03
68226;BME280;55045;49.410;11.030;2022-07-29T15:19:49;97762.44;;;24.53;86.03
68226;BME280;55045;49.410;11.030;2022-07-29T15:22:55;97761.38;;;24.62;84.01
68226;BME280;55045;49.410;11.030;2022-07-29T15:25:58;97766.22;;;24.58;74.87
68226;BME280;55045;49.410;11.030;2022-07-29T15:29:01;97763.06;;;24.63;73.24
68226;BME280;55045;49.410;11.030;2022-07-29T15:34:44;97760.28;;;24.48;81.52
68226;BME280;55045;49.410;11.030;2022-07-29T15:37:48;97765.72;;;24.63;77.38
68226;BME280;55045;49.410;11.030;2022-07-29T15:40:51;97779.28;;;24.60;77.83
68226;BME280;55045;49.410;11.030;2022-07-29T15:43:54;97778.34;;;24.20;82.71
68226;BME280;55045;49.410;11.030;2022-07-29T15:46:57;97750.91;;;24.13;87.70
68226;BME280;55045;49.410;11.030;2022-07-29T15:50:09;97782.03;;;24.03;91.73
68226;BME280;55045;49.410;11.030;2022-07-29T15:53:16;97795.38;;;23.52;95.01
68226;BME280;55045;49.410;11.030;2022-07-29T15:56:20;97802.78;;;23.33;99.36
68226;BME280;55045;49.410;11.030;2022-07-29T15:59:23;97832.22;;;23.30;100.00
68226;BME280;55045;49.410;11.030;2022-07-29T16:02:27;97833.97;;;22.79;100.00
68226;BME280;55045;49.410;11.030;2022-07-29T16:05:31;97834.88;;;22.95;100.00
68226;BME280;55045;49.410;11.030;2022-07-29T16:08:42;97842.50;;;22.73;100.00
68226;BME280;55045;49.410;11.030;2022-07-29T16:11:46;97835.13;;;22.50;100.00
68226;BME280;55045;49.410;11.030;2022-07-29T16:14:52;97836.66;;;22.61;100.00
68226;BME280;55045;49.410;11.030;2022-07-29T16:17:55;97841.91;;;22.53;100.00
68226;BME280;55045;49.410;11.030;2022-07-29T16:21:00;97845.06;;;22.30;100.00
68226;BME280;55045;49.410;11.030;2022-07-29T16:24:04;97852.75;;;22.24;100.00
68226;BME280;55045;49.410;11.030;2022-07-29T16:27:08;97864.69;;;21.92;100.00